Airfield :
LOGIN :

Register | Disclaimer

   EN    FR    IT 

 










Legend :    VFR   Marginal VFR   IFR   Intensive IFR   Very Intensive IFR
Visi :
Ceiling :
>= 8 km
>= 3000ft
5 to 8 km
1000 to 3000 ft
1500m to 5 km
500 to 1000 ft
800 to 1500m
200 to 500 ft
< 800m
< 200 ft
Symbols :   Thunderstorms  Fog  Heavy snow  Heavy precipitations  Wind > 20 kt
SIGMETs :     Misc.  Thunderstorms  Icing  Turbulence  Mountain Waves  Volcanic Ashes






- Airport Elevation : 308 ft
- IATA code : POZ


EPPO - Poznan-Lawica

CURRENT METAR :
  • 251830Z 33005KT 9999 FEW060CB 13/09 Q1027

EXPIRED METARs :
  • 251800Z 35005KT 9999 FEW030CB 13/09 Q1027
  • 251730Z 36006KT 340V050 9999 FEW027CB 15/09 Q1027
  • 251700Z 34006KT 310V010 9999 FEW027CB 14/09 Q1026
  • 251630Z 35009KT 9999 SCT027CB 14/08 Q1026
  • 251600Z 33011KT 9999 SCT027CB BKN027 14/08 Q1026

TAF TAF EPPO
Valid from the 25 at 18:00 until the 26 at 18:00 UTC


251730Z 2518/2618 33010KT 9999 SCT020
TEMPO 2518/2521 SHRA BKN007 BKN015CB
TEMPO 2523/2605 4000 BR BKN007
BECMG 2605/2607 CAVOK



MET'MAP, your aeronautical weather chart ! - Copyright ORBIFLY December 2007 - Disclaimer

ORBIFLY MET'MAP TEAM :

Programming & Development : Alexandra Zaïnal
Concept & original design : Baudouin d'Aumeries
Assistance for programming : Marc-Olivier Méhu
Technical & hardware support : Manuel Goepfert

Contact : metmap@orbifly.com




SOURCES & CREDITS :

   NOAA